Hauptseite
METAR-TAF:

METAR-TAF

Flughäfen :

Valence, Frankreich

Flughafen Valence-Chabeuil

Breite: 44-54-58N, Länge: 4-58-06E, Höhe: 160 m

Beobachtung

Neuester Wetterbericht von vor 7 Stunden und 9 Minuten, um 18:00 UTC
Wind 4 kt aus Nord
Temperatur 5°C
Luftfeuchtigkeit 87%
Luftdruck 1016 hPa
Sichtweite 10 km oder mehr
Aufgelockert bewölkt in der Höhe von 6000 ft
Aufgelockert bewölkt in der Höhe von 7600 ft
Durchbrochene Bewölkung in der Höhe von 10000 ft

METAR: LFLU 191800Z AUTO 35004KT 9999 SCT060 SCT076 BKN100 05/03 Q1016

Zeit: 02:09 (01:09 UTC)


TAF: fehlend

Wetterbeobachtungen und Prognosen von mehr als 4000 Flughäfen (METAR und TAF Bericht).

Die verfügbaren Stationen werden durch gelbe und rote Markierungen auf der Karte dargestellt.

Führen Sie die Maus auf sie, um den Namen der Station zu sehen.

Darauf klicken, um die Beobachtung von Wetterbeobachtungen und Prognosen zu sehen.

Um die Karte zu ändern : klicken Sie auf den grünen Tasten mit einem schwarzen Kreuz Zum Vergrößern, auf den grünen Button mit einem Gedankenstrich zu verkleinern, oder auf die grünen Pfeile für benachbarte Karten.


METAR-TAF: